createdAt,value
2018-03-29T00:02:02.004Z,6.10
2018-03-29T00:05:03.263Z,5.80
2018-03-29T00:08:04.534Z,5.80
2018-03-29T00:11:05.755Z,6.00
2018-03-29T00:14:06.980Z,6.00
2018-03-29T00:17:08.948Z,5.90
2018-03-29T00:20:10.934Z,5.90
2018-03-29T00:23:12.895Z,5.80
2018-03-29T00:26:14.142Z,5.80
2018-03-29T00:29:15.444Z,5.70
2018-03-29T00:32:16.663Z,5.60
2018-03-29T00:35:17.895Z,5.60
2018-03-29T00:38:19.142Z,5.70
2018-03-29T00:41:20.420Z,5.60
2018-03-29T00:44:21.661Z,5.60
2018-03-29T00:47:23.650Z,5.60
2018-03-29T00:50:24.912Z,5.60
2018-03-29T00:53:43.497Z,5.50
2018-03-29T00:56:44.787Z,5.40
2018-03-29T00:59:46.043Z,5.40
2018-03-29T01:02:47.271Z,5.50
2018-03-29T01:05:48.505Z,5.60
2018-03-29T01:08:49.787Z,5.50
2018-03-29T01:11:51.797Z,5.50
2018-03-29T01:14:53.101Z,5.40
2018-03-29T01:17:54.373Z,5.50
2018-03-29T01:20:55.618Z,5.50
2018-03-29T01:23:56.960Z,5.50
2018-03-29T01:26:58.194Z,5.60
2018-03-29T01:29:59.431Z,5.50
2018-03-29T01:33:01.402Z,5.60
2018-03-29T01:36:02.700Z,5.60
2018-03-29T01:39:03.988Z,5.50
2018-03-29T01:42:05.233Z,5.40
2018-03-29T01:45:06.526Z,5.40
2018-03-29T01:48:14.758Z,5.50
2018-03-29T01:51:15.990Z,5.70
2018-03-29T01:54:17.283Z,5.60
2018-03-29T01:57:18.539Z,5.60
2018-03-29T02:00:19.794Z,5.60
2018-03-29T02:03:21.027Z,5.50
2018-03-29T02:06:23.010Z,5.30
2018-03-29T02:09:25.493Z,5.30
2018-03-29T02:12:26.753Z,5.30
2018-03-29T02:15:28.800Z,5.40
2018-03-29T02:18:30.072Z,5.40
2018-03-29T02:21:31.314Z,5.40
2018-03-29T02:24:32.531Z,5.40
2018-03-29T02:27:34.488Z,5.40
2018-03-29T02:30:35.736Z,5.40
2018-03-29T02:33:36.990Z,5.40
2018-03-29T02:36:38.222Z,5.50
2018-03-29T02:39:39.460Z,5.60
2018-03-29T02:42:41.439Z,5.60
2018-03-29T02:45:43.421Z,5.50
2018-03-29T02:48:45.433Z,5.60
2018-03-29T02:51:46.685Z,5.50
2018-03-29T02:54:47.903Z,5.60
2018-03-29T02:57:49.924Z,5.50
2018-03-29T03:00:51.197Z,5.50
2018-03-29T03:03:52.469Z,5.50
2018-03-29T03:06:53.742Z,5.70
2018-03-29T03:09:55.014Z,5.50
2018-03-29T03:12:56.269Z,5.50
2018-03-29T03:15:57.495Z,5.50
2018-03-29T03:18:58.738Z,5.30
2018-03-29T03:22:00.746Z,5.50
2018-03-29T03:25:02.013Z,5.50
2018-03-29T03:28:03.305Z,5.50
2018-03-29T03:31:04.563Z,5.40
2018-03-29T03:34:05.804Z,5.50
2018-03-29T03:37:07.110Z,5.50
2018-03-29T03:40:08.378Z,5.50
2018-03-29T03:43:09.622Z,5.50
2018-03-29T03:46:10.876Z,5.50
2018-03-29T03:49:12.106Z,5.50
2018-03-29T03:52:13.354Z,5.40
2018-03-29T03:55:15.323Z,5.50
2018-03-29T03:58:16.576Z,5.50
2018-03-29T04:01:17.807Z,5.50
2018-03-29T04:04:19.062Z,5.50
2018-03-29T04:07:20.320Z,5.40
2018-03-29T04:10:21.574Z,5.40
2018-03-29T04:13:22.787Z,5.50
2018-03-29T04:16:24.019Z,5.50
2018-03-29T04:19:25.235Z,5.50
2018-03-29T04:22:27.218Z,5.70
2018-03-29T04:25:29.194Z,5.60
2018-03-29T04:28:31.182Z,5.60
2018-03-29T04:31:33.151Z,5.50
2018-03-29T04:34:35.149Z,5.50
2018-03-29T04:37:36.385Z,5.50
2018-03-29T04:40:37.750Z,5.50
2018-03-29T04:43:39.015Z,5.60
2018-03-29T04:46:40.303Z,5.60
2018-03-29T04:49:42.273Z,5.60
2018-03-29T04:52:44.247Z,5.70
2018-03-29T04:55:46.211Z,5.60
2018-03-29T04:58:47.452Z,5.60
2018-03-29T05:01:48.701Z,5.80
2018-03-29T05:04:49.917Z,5.70
2018-03-29T05:07:51.891Z,5.70
2018-03-29T05:10:53.126Z,5.70
2018-03-29T05:13:54.379Z,5.60
2018-03-29T05:16:55.606Z,5.50
2018-03-29T05:19:56.835Z,5.60
2018-03-29T05:22:58.063Z,5.40
2018-03-29T05:26:05.246Z,5.30
2018-03-29T05:29:06.451Z,5.50
2018-03-29T05:32:07.706Z,5.60
2018-03-29T05:35:09.683Z,5.60
2018-03-29T05:38:10.937Z,5.60
2018-03-29T05:41:12.174Z,5.70
2018-03-29T05:44:13.393Z,5.60
2018-03-29T05:47:14.622Z,5.60
2018-03-29T05:50:15.901Z,5.50
2018-03-29T05:53:17.135Z,5.60
2018-03-29T05:56:18.357Z,5.60
2018-03-29T05:59:20.316Z,5.70
2018-03-29T06:02:21.664Z,5.70
2018-03-29T06:05:22.919Z,5.60
2018-03-29T06:08:24.181Z,5.50
2018-03-29T06:11:26.175Z,5.70
2018-03-29T06:14:33.485Z,5.70
2018-03-29T06:17:34.731Z,5.80
2018-03-29T06:20:36.005Z,5.80
2018-03-29T06:23:37.244Z,5.80
2018-03-29T06:26:38.494Z,5.80
2018-03-29T06:29:39.704Z,5.80
2018-03-29T06:32:41.020Z,5.80
2018-03-29T06:35:42.236Z,5.90
2018-03-29T06:38:43.472Z,6.00
2018-03-29T06:41:44.722Z,6.00
2018-03-29T06:44:45.974Z,6.00
2018-03-29T06:47:47.207Z,6.00
2018-03-29T06:50:49.188Z,6.10
2018-03-29T06:53:51.192Z,6.10
2018-03-29T06:56:52.484Z,6.10
2018-03-29T06:59:53.734Z,6.10
2018-03-29T07:02:54.987Z,6.00
2018-03-29T07:05:56.256Z,6.00
2018-03-29T07:08:57.577Z,6.10
2018-03-29T07:11:59.577Z,6.20
2018-03-29T07:15:01.596Z,6.20
2018-03-29T07:18:04.106Z,6.20
2018-03-29T07:21:06.114Z,6.20
2018-03-29T07:24:07.373Z,6.20
2018-03-29T07:27:08.592Z,6.50
2018-03-29T07:30:09.841Z,6.50
2018-03-29T07:33:11.101Z,6.40
2018-03-29T07:36:12.346Z,6.20
2018-03-29T07:39:14.310Z,6.20
2018-03-29T07:42:16.351Z,6.30
2018-03-29T07:45:17.591Z,6.20
2018-03-29T07:48:20.386Z,6.30
2018-03-29T07:51:23.086Z,6.10
2018-03-29T07:54:24.789Z,6.10
2018-03-29T07:57:26.678Z,6.10
2018-03-29T08:00:29.244Z,6.10
2018-03-29T08:03:30.613Z,6.00
2018-03-29T08:06:31.856Z,6.00
2018-03-29T08:09:33.066Z,6.00
2018-03-29T08:12:34.284Z,5.90
2018-03-29T08:15:35.511Z,5.70
2018-03-29T08:18:37.502Z,5.70
2018-03-29T08:21:39.483Z,5.70
2018-03-29T08:24:41.443Z,5.50
2018-03-29T08:27:42.650Z,5.50
2018-03-29T08:30:43.886Z,5.40
2018-03-29T08:33:45.855Z,5.20
2018-03-29T08:36:47.113Z,5.20
2018-03-29T08:39:48.362Z,5.30
2018-03-29T08:42:49.635Z,5.40
2018-03-29T08:45:50.815Z,5.40
2018-03-29T08:48:52.784Z,5.50
2018-03-29T08:51:54.033Z,5.50
2018-03-29T08:54:55.276Z,5.50
2018-03-29T08:57:56.490Z,5.50
2018-03-29T09:00:58.447Z,5.60
2018-03-29T09:03:59.705Z,5.60
2018-03-29T09:07:00.928Z,5.60
2018-03-29T09:10:02.208Z,5.80
2018-03-29T09:13:03.458Z,5.90
2018-03-29T09:16:04.696Z,5.80
2018-03-29T09:19:05.912Z,5.90
2018-03-29T09:22:07.158Z,5.90
2018-03-29T09:25:08.429Z,5.90
2018-03-29T09:28:09.643Z,5.90
2018-03-29T09:31:10.860Z,6.00
2018-03-29T09:34:12.094Z,6.00
2018-03-29T09:37:13.340Z,6.10
2018-03-29T09:40:14.584Z,6.10
2018-03-29T09:43:16.564Z,6.20
2018-03-29T09:46:17.821Z,6.20
2018-03-29T09:49:19.812Z,6.30
2018-03-29T09:52:21.055Z,6.30
2018-03-29T09:55:22.302Z,6.50
2018-03-29T09:58:23.545Z,6.60
2018-03-29T10:01:24.825Z,6.60
2018-03-29T10:04:26.142Z,6.70
2018-03-29T10:07:33.222Z,6.60
2018-03-29T10:10:35.248Z,6.50
2018-03-29T10:13:36.461Z,6.50
2018-03-29T10:16:38.491Z,6.40
2018-03-29T10:19:39.708Z,6.40
2018-03-29T10:22:41.671Z,6.50
2018-03-29T10:25:42.907Z,6.50
2018-03-29T10:28:44.150Z,6.50
2018-03-29T10:31:45.382Z,6.50
2018-03-29T10:34:46.634Z,6.70
2018-03-29T10:37:48.640Z,6.90
2018-03-29T10:40:49.862Z,6.90
2018-03-29T10:43:51.130Z,6.80
2018-03-29T10:46:52.366Z,6.80
2018-03-29T10:49:53.622Z,6.80
2018-03-29T10:52:54.858Z,7.20
2018-03-29T10:55:56.077Z,7.40
2018-03-29T10:58:57.298Z,7.50
2018-03-29T11:01:58.534Z,7.40
2018-03-29T11:04:59.755Z,7.20
2018-03-29T11:08:00.991Z,7.30
2018-03-29T11:11:02.213Z,7.60
2018-03-29T11:14:04.186Z,8.20
2018-03-29T11:17:06.175Z,8.40
2018-03-29T11:20:07.426Z,8.40
2018-03-29T11:23:09.380Z,8.00
2018-03-29T11:26:10.633Z,7.90
2018-03-29T11:29:11.894Z,7.90
2018-03-29T11:32:13.170Z,7.80
2018-03-29T11:35:14.433Z,7.90
2018-03-29T11:38:15.682Z,8.00
2018-03-29T11:41:16.996Z,7.90
2018-03-29T11:44:18.323Z,7.80
2018-03-29T11:47:19.595Z,7.90
2018-03-29T11:50:20.849Z,7.90
2018-03-29T11:53:22.103Z,8.00
2018-03-29T11:56:23.354Z,8.40
2018-03-29T11:59:24.575Z,8.50
2018-03-29T12:02:26.574Z,8.70
2018-03-29T12:05:27.837Z,8.60
2018-03-29T12:08:29.083Z,8.70
2018-03-29T12:11:30.362Z,8.60
2018-03-29T12:14:31.621Z,8.70
2018-03-29T12:17:32.846Z,8.90
2018-03-29T12:20:34.097Z,9.10
2018-03-29T12:23:35.328Z,9.20
2018-03-29T12:26:36.570Z,9.10
2018-03-29T12:29:37.795Z,9.00
2018-03-29T12:32:39.000Z,8.90
2018-03-29T12:35:40.215Z,8.90
2018-03-29T12:38:41.462Z,8.70
2018-03-29T12:41:43.439Z,8.70
2018-03-29T12:44:44.660Z,8.70
2018-03-29T12:47:45.921Z,8.70
2018-03-29T12:50:47.134Z,9.10
2018-03-29T12:53:48.357Z,9.60
2018-03-29T12:57:08.302Z,9.50
2018-03-29T13:00:09.560Z,9.60
2018-03-29T13:03:10.769Z,9.60
2018-03-29T13:06:12.024Z,10.10
2018-03-29T13:09:13.285Z,10.40
2018-03-29T13:12:14.541Z,10.30
2018-03-29T13:15:16.503Z,11.10
2018-03-29T13:18:17.758Z,11.00
2018-03-29T13:21:19.010Z,10.80
2018-03-29T13:24:20.271Z,10.50
2018-03-29T13:27:21.533Z,10.00
2018-03-29T13:30:22.800Z,10.10
2018-03-29T13:33:24.066Z,9.80
2018-03-29T13:36:25.335Z,9.90
2018-03-29T13:39:26.619Z,9.70
2018-03-29T13:42:28.445Z,9.50
2018-03-29T13:45:29.668Z,9.40
2018-03-29T13:48:32.682Z,10.20
2018-03-29T13:51:34.410Z,10.20
2018-03-29T13:54:36.378Z,10.40
2018-03-29T13:57:38.132Z,10.30
2018-03-29T14:00:39.765Z,10.70
2018-03-29T14:03:41.510Z,11.10
2018-03-29T14:06:42.913Z,11.40
2018-03-29T14:09:44.757Z,11.80
2018-03-29T14:12:46.175Z,12.10
2018-03-29T14:15:48.396Z,12.90
2018-03-29T14:18:49.634Z,12.40
2018-03-29T14:21:51.862Z,12.00
2018-03-29T14:24:53.110Z,11.50
2018-03-29T14:27:54.825Z,11.30
2018-03-29T14:30:56.900Z,11.30
2018-03-29T14:33:59.143Z,11.10
2018-03-29T14:37:07.719Z,11.10
2018-03-29T14:40:09.560Z,10.80
2018-03-29T14:43:12.287Z,10.40
2018-03-29T14:46:14.212Z,10.50
2018-03-29T14:49:15.658Z,10.60
2018-03-29T14:52:18.155Z,10.80
2018-03-29T14:55:19.458Z,10.70
2018-03-29T14:58:21.198Z,11.00
2018-03-29T15:01:22.441Z,11.70
2018-03-29T15:04:24.792Z,10.50
2018-03-29T15:07:26.170Z,10.40
2018-03-29T15:10:28.879Z,9.60
2018-03-29T15:13:30.205Z,9.60
2018-03-29T15:16:32.440Z,9.40
2018-03-29T15:19:33.772Z,9.70
2018-03-29T15:22:35.002Z,9.90
2018-03-29T15:25:37.653Z,10.50
2018-03-29T15:28:39.398Z,11.00
2018-03-29T15:31:40.872Z,11.40
2018-03-29T15:34:42.563Z,11.80
2018-03-29T15:37:43.802Z,11.90
2018-03-29T15:40:45.603Z,11.80
2018-03-29T15:43:46.804Z,11.70
2018-03-29T15:46:48.380Z,11.50
2018-03-29T15:49:50.163Z,10.70
2018-03-29T15:52:51.864Z,10.40
2018-03-29T15:55:54.553Z,10.00
2018-03-29T15:58:55.814Z,9.80
2018-03-29T16:01:57.649Z,9.80
2018-03-29T16:04:59.666Z,10.10
2018-03-29T16:08:08.047Z,10.00
2018-03-29T16:11:09.914Z,10.20
2018-03-29T16:14:12.055Z,10.10
2018-03-29T16:17:13.621Z,10.10
2018-03-29T16:20:14.940Z,10.30
2018-03-29T16:23:16.184Z,10.60
2018-03-29T16:26:17.673Z,10.30
2018-03-29T16:29:18.947Z,10.30
2018-03-29T16:32:21.463Z,10.40
2018-03-29T16:35:24.026Z,10.40
2018-03-29T16:38:26.247Z,10.40
2018-03-29T16:41:28.734Z,10.30
2018-03-29T16:44:30.475Z,10.30
2018-03-29T16:47:31.883Z,10.30
2018-03-29T16:50:34.102Z,10.10
2018-03-29T16:53:35.562Z,10.10
2018-03-29T16:56:37.289Z,9.70
2018-03-29T16:59:38.836Z,9.50
2018-03-29T17:02:40.724Z,9.40
2018-03-29T17:05:44.542Z,9.20
2018-03-29T17:08:47.416Z,9.10
2018-03-29T17:11:49.640Z,9.10
2018-03-29T17:14:50.931Z,9.00
2018-03-29T17:17:52.625Z,8.90
2018-03-29T17:20:53.960Z,8.90
2018-03-29T17:23:55.671Z,8.80
2018-03-29T17:26:56.958Z,8.70
2018-03-29T17:29:58.191Z,8.70
2018-03-29T17:32:59.434Z,8.60
2018-03-29T17:36:01.341Z,8.50
2018-03-29T17:39:02.631Z,8.30
2018-03-29T17:42:03.916Z,8.20
2018-03-29T17:45:05.914Z,8.00
2018-03-29T17:48:08.421Z,7.90
2018-03-29T17:51:09.793Z,8.00
2018-03-29T17:54:11.204Z,8.00
2018-03-29T17:57:12.642Z,7.90
2018-03-29T18:00:14.747Z,7.90
2018-03-29T18:03:18.366Z,8.00
2018-03-29T18:06:20.899Z,7.70
2018-03-29T18:09:22.699Z,7.70
2018-03-29T18:12:25.729Z,7.60
2018-03-29T18:15:27.420Z,7.60
2018-03-29T18:18:28.718Z,7.50
2018-03-29T18:21:31.836Z,7.40
2018-03-29T18:24:33.873Z,7.40
2018-03-29T18:27:35.177Z,7.30
2018-03-29T18:30:36.978Z,7.20
2018-03-29T18:33:38.723Z,7.20
2018-03-29T18:36:40.426Z,7.20
2018-03-29T18:39:41.794Z,7.10
2018-03-29T18:42:43.155Z,7.10
2018-03-29T18:45:44.546Z,7.10
2018-03-29T18:48:45.853Z,7.00
2018-03-29T18:51:47.774Z,7.00
2018-03-29T18:54:49.318Z,7.00
2018-03-29T18:57:50.634Z,6.90
2018-03-29T19:00:52.885Z,6.80
2018-03-29T19:03:54.433Z,6.70
2018-03-29T19:06:55.890Z,6.60
2018-03-29T19:09:58.661Z,6.60
2018-03-29T19:13:01.698Z,6.60
2018-03-29T19:16:03.281Z,6.60
2018-03-29T19:19:04.639Z,6.70
2018-03-29T19:22:06.094Z,6.70
2018-03-29T19:25:07.449Z,6.70
2018-03-29T19:28:08.840Z,6.70
2018-03-29T19:31:10.196Z,6.60
2018-03-29T19:34:11.455Z,6.70
2018-03-29T19:37:13.446Z,6.70
2018-03-29T19:40:15.129Z,6.60
2018-03-29T19:43:16.599Z,6.70
2018-03-29T19:46:20.292Z,6.70
2018-03-29T19:49:22.715Z,6.80
2018-03-29T19:52:26.092Z,6.80
2018-03-29T19:55:30.568Z,6.70
2018-03-29T19:58:32.005Z,6.80
2018-03-29T20:01:33.975Z,6.80
2018-03-29T20:04:35.780Z,6.80
2018-03-29T20:07:37.314Z,6.70
2018-03-29T20:10:39.275Z,6.80
2018-03-29T20:13:41.007Z,6.80
2018-03-29T20:16:42.931Z,6.70
2018-03-29T20:19:46.055Z,6.70
2018-03-29T20:22:47.446Z,6.70
2018-03-29T20:25:49.145Z,6.70
2018-03-29T20:28:50.568Z,6.70
2018-03-29T20:31:52.118Z,6.80
2018-03-29T20:34:53.447Z,6.70
2018-03-29T20:37:54.850Z,6.70
2018-03-29T20:40:56.299Z,6.60
2018-03-29T20:43:59.138Z,6.60
2018-03-29T20:47:00.939Z,6.60
2018-03-29T20:50:02.988Z,6.60
2018-03-29T20:53:04.363Z,6.60
2018-03-29T20:56:06.172Z,6.60
2018-03-29T20:59:07.802Z,6.60
2018-03-29T21:02:09.125Z,6.90
2018-03-29T21:05:10.649Z,7.10
2018-03-29T21:08:12.097Z,6.90
2018-03-29T21:11:13.672Z,6.80
2018-03-29T21:14:15.625Z,6.80
2018-03-29T21:17:16.934Z,6.70
2018-03-29T21:20:18.286Z,6.60
2018-03-29T21:23:20.507Z,6.70
2018-03-29T21:26:23.902Z,6.70
2018-03-29T21:29:25.428Z,6.70
2018-03-29T21:32:26.957Z,6.60
2018-03-29T21:35:28.239Z,6.50
2018-03-29T21:38:30.150Z,6.40
2018-03-29T21:41:32.724Z,6.50
2018-03-29T21:44:34.996Z,6.60
2018-03-29T21:47:36.725Z,6.60
2018-03-29T21:50:38.797Z,6.60
2018-03-29T21:53:40.108Z,6.60
2018-03-29T21:56:41.361Z,6.50
2018-03-29T22:05:05.456Z,6.40
2018-03-29T22:08:06.710Z,6.30
2018-03-29T22:11:07.993Z,6.20
2018-03-29T22:14:09.601Z,6.30
2018-03-29T22:17:10.900Z,6.30
2018-03-29T22:20:12.137Z,6.30
2018-03-29T22:23:13.346Z,6.30
2018-03-29T22:26:14.576Z,6.30
2018-03-29T22:29:15.846Z,6.30
2018-03-29T22:32:17.068Z,6.40
2018-03-29T22:35:19.076Z,6.30
2018-03-29T22:38:20.422Z,6.30
2018-03-29T22:41:21.724Z,6.30
2018-03-29T22:44:22.985Z,6.30
2018-03-29T22:47:24.227Z,6.30
2018-03-29T22:50:25.494Z,6.40
2018-03-29T22:53:26.737Z,6.40
2018-03-29T22:56:28.727Z,6.30
2018-03-29T22:59:29.935Z,6.20
2018-03-29T23:02:31.193Z,6.30
2018-03-29T23:05:32.439Z,6.20
2018-03-29T23:08:33.702Z,6.20
2018-03-29T23:11:34.943Z,6.30
2018-03-29T23:14:36.193Z,6.20
2018-03-29T23:17:38.206Z,6.30
2018-03-29T23:20:39.462Z,6.30
2018-03-29T23:23:40.684Z,6.20
2018-03-29T23:26:41.945Z,6.10
2018-03-29T23:29:43.196Z,6.10
2018-03-29T23:32:44.408Z,6.20
2018-03-29T23:35:45.650Z,6.10
2018-03-29T23:38:47.796Z,6.00
2018-03-29T23:41:49.029Z,6.00
2018-03-29T23:44:50.286Z,6.00
2018-03-29T23:47:51.560Z,6.00
2018-03-29T23:50:52.830Z,6.00
2018-03-29T23:53:54.843Z,6.00
2018-03-29T23:56:56.106Z,6.00
2018-03-29T23:59:57.438Z,6.00
